Royston, Texas
Current Conditions -  °F | °C
As of 11:55 PM on Saturday 25 Oct 2014 (Local Time) from KSWW Reporting Station
Clear Clear  
Wind Chill: 71°   Ceiling: Unl
Heat Index: 71°   Visibility: 10mi
Dew Point: 49°   Wind: 13mph
Humidity: 46%   Direction: 190°S
Pressure: 30.11"   Gusts: NA
Location:  32.6787°N, 100.492°W
Report Text: KSWW 260455Z AUTO 19011KT 10SM CLR 22/10 A3011 RMK AO2 T02150095
Loading
Personal Weather Stations






























Interactive Weather Map
Tropical Storm Tracking
New forecast layout! Learn more

10-Day Weather Forecast

Advertisements
Track Severe Weather on mobile